createdAt,value
2022-09-04T00:02:40.359Z,4.37
2022-09-04T00:05:36.618Z,4.27
2022-09-04T00:08:43.319Z,4.43
2022-09-04T00:11:48.201Z,4.83
2022-09-04T00:14:47.400Z,4.20
2022-09-04T00:17:46.362Z,4.47
2022-09-04T00:20:47.859Z,4.30
2022-09-04T00:23:46.607Z,4.12
2022-09-04T00:26:50.754Z,4.50
2022-09-04T00:29:50.155Z,4.70
2022-09-04T00:32:46.916Z,4.65
2022-09-04T00:35:45.282Z,4.47
2022-09-04T00:38:44.845Z,4.80
2022-09-04T00:41:47.573Z,4.63
2022-09-04T00:44:58.446Z,5.00
2022-09-04T00:48:17.493Z,4.47
2022-09-04T00:51:26.128Z,3.93
2022-09-04T00:54:42.327Z,4.10
2022-09-04T00:58:16.758Z,4.30
2022-09-04T01:01:13.113Z,4.00
2022-09-04T01:04:29.469Z,3.60
2022-09-04T01:07:40.363Z,4.10
2022-09-04T01:10:52.261Z,3.50
2022-09-04T01:13:48.767Z,3.50
2022-09-04T01:16:48.475Z,4.10
2022-09-04T01:19:53.954Z,3.90
2022-09-04T01:23:09.537Z,3.67
2022-09-04T01:26:11.708Z,3.73
2022-09-04T01:29:15.517Z,3.77
2022-09-04T01:32:14.101Z,3.90
2022-09-04T01:35:16.581Z,3.10
2022-09-04T01:38:18.236Z,3.62
2022-09-04T01:41:17.439Z,3.95
2022-09-04T01:44:11.714Z,3.60
2022-09-04T01:47:17.632Z,4.27
2022-09-04T01:50:13.740Z,3.97
2022-09-04T01:53:13.621Z,4.10
2022-09-04T01:56:14.665Z,3.50
2022-09-04T01:59:13.454Z,3.73
2022-09-04T02:02:16.977Z,3.50
2022-09-04T02:05:20.046Z,3.80
2022-09-04T02:08:31.289Z,3.83
2022-09-04T02:11:27.823Z,3.70
2022-09-04T02:14:36.060Z,3.63
2022-09-04T02:17:40.195Z,3.53
2022-09-04T02:20:33.714Z,3.93
2022-09-04T02:23:36.597Z,3.75
2022-09-04T02:26:32.201Z,3.47
2022-09-04T02:29:34.125Z,4.07
2022-09-04T02:32:33.134Z,3.60
2022-09-04T02:35:32.921Z,3.60
2022-09-04T02:38:34.160Z,3.33
2022-09-04T02:41:33.246Z,3.77
2022-09-04T02:44:39.338Z,3.50
2022-09-04T02:47:38.164Z,3.57
2022-09-04T02:50:48.222Z,3.63
2022-09-04T02:53:51.891Z,3.90
2022-09-04T02:56:59.076Z,3.37
2022-09-04T03:00:02.650Z,3.30
2022-09-04T03:03:02.323Z,3.17
2022-09-04T03:06:02.744Z,3.83
2022-09-04T03:09:00.998Z,3.50
2022-09-04T03:12:00.401Z,3.80
2022-09-04T03:15:00.014Z,3.83
2022-09-04T03:18:00.644Z,3.33
2022-09-04T03:20:59.644Z,3.63
2022-09-04T03:23:57.641Z,3.50
2022-09-04T03:26:53.914Z,3.70
2022-09-04T03:29:57.239Z,3.80
2022-09-04T03:32:57.020Z,3.60
2022-09-04T03:36:00.350Z,3.70
2022-09-04T03:39:03.099Z,3.60
2022-09-04T03:42:10.632Z,3.27
2022-09-04T03:45:15.946Z,3.67
2022-09-04T03:48:21.726Z,3.77
2022-09-04T03:51:26.248Z,3.10
2022-09-04T03:54:39.378Z,3.90
2022-09-04T03:57:50.419Z,3.47
2022-09-04T04:00:57.436Z,3.80
2022-09-04T04:04:09.539Z,3.70
2022-09-04T04:07:10.451Z,3.57
2022-09-04T04:10:20.875Z,3.67
2022-09-04T04:13:44.192Z,3.77
2022-09-04T04:16:55.861Z,4.43
2022-09-04T04:20:06.004Z,4.28
2022-09-04T04:23:31.367Z,3.40
2022-09-04T04:26:41.011Z,3.27
2022-09-04T04:29:53.706Z,3.97
2022-09-04T04:33:27.131Z,5.40
2022-09-04T04:36:31.657Z,6.57
2022-09-04T04:39:37.238Z,4.50
2022-09-04T04:42:37.220Z,3.90
2022-09-04T04:45:52.195Z,4.73
2022-09-04T04:49:10.639Z,4.27
2022-09-04T04:52:20.109Z,3.37
2022-09-04T04:55:24.610Z,3.60
2022-09-04T04:58:42.447Z,3.73
2022-09-04T05:01:50.574Z,3.87
2022-09-04T05:04:52.927Z,3.97
2022-09-04T05:08:05.082Z,3.53
2022-09-04T05:11:08.326Z,3.90
2022-09-04T05:14:15.514Z,4.60
2022-09-04T05:17:18.804Z,4.63
2022-09-04T05:20:30.011Z,4.07
2022-09-04T05:23:33.795Z,3.70
2022-09-04T05:26:38.124Z,4.50
2022-09-04T05:29:43.881Z,3.73
2022-09-04T05:32:40.676Z,3.33
2022-09-04T05:35:42.271Z,4.00
2022-09-04T05:38:40.651Z,4.43
2022-09-04T05:41:48.247Z,4.57
2022-09-04T05:44:49.383Z,3.53
2022-09-04T05:47:54.430Z,3.80
2022-09-04T05:50:57.302Z,4.40
2022-09-04T05:54:34.401Z,3.97
2022-09-04T05:57:38.108Z,3.53
2022-09-04T06:00:40.994Z,4.00
2022-09-04T06:03:52.421Z,4.07
2022-09-04T06:06:49.810Z,3.50
2022-09-04T06:10:00.525Z,4.00
2022-09-04T06:13:28.998Z,3.87
2022-09-04T06:16:45.319Z,3.40
2022-09-04T06:19:58.317Z,3.80
2022-09-04T06:23:05.300Z,3.00
2022-09-04T06:26:23.136Z,3.40
2022-09-04T06:29:32.376Z,4.00
2022-09-04T06:32:57.379Z,4.10
2022-09-04T06:36:05.790Z,3.37
2022-09-04T06:39:13.559Z,3.50
2022-09-04T06:42:21.858Z,3.60
2022-09-04T06:45:27.561Z,3.50
2022-09-04T06:48:30.240Z,3.70
2022-09-04T06:51:36.811Z,4.23
2022-09-04T06:54:39.497Z,3.77
2022-09-04T06:57:53.645Z,4.07
2022-09-04T07:00:54.311Z,3.90
2022-09-04T07:04:11.296Z,3.90
2022-09-04T07:07:13.360Z,3.80
2022-09-04T07:10:10.660Z,3.90
2022-09-04T07:13:42.071Z,3.97
2022-09-04T07:16:48.239Z,4.07
2022-09-04T07:20:14.815Z,4.03
2022-09-04T07:23:31.283Z,4.30
2022-09-04T07:26:33.964Z,4.00
2022-09-04T07:32:32.566Z,4.07
2022-09-04T07:35:32.383Z,4.53
2022-09-04T07:38:31.010Z,4.30
2022-09-04T07:41:31.529Z,3.83
2022-09-04T07:44:32.304Z,4.40
2022-09-04T07:47:34.562Z,4.07
2022-09-04T07:50:33.123Z,4.67
2022-09-04T07:53:41.917Z,4.93
2022-09-04T07:56:54.162Z,4.03
2022-09-04T08:00:06.288Z,4.60
2022-09-04T08:03:25.035Z,4.13
2022-09-04T08:06:23.576Z,4.37
2022-09-04T08:09:36.489Z,4.23
2022-09-04T08:12:56.783Z,4.10
2022-09-04T08:15:58.306Z,4.50
2022-09-04T08:19:09.317Z,4.50
2022-09-04T08:22:04.170Z,4.37
2022-09-04T08:25:18.047Z,4.70
2022-09-04T08:28:24.877Z,4.40
2022-09-04T08:31:29.547Z,4.13
2022-09-04T08:35:05.731Z,4.70
2022-09-04T08:38:43.024Z,4.57
2022-09-04T08:42:11.099Z,4.50
2022-09-04T08:45:42.112Z,4.47
2022-09-04T08:49:09.762Z,4.10
2022-09-04T08:52:48.025Z,4.40
2022-09-04T08:55:57.466Z,4.50
2022-09-04T08:59:36.401Z,4.37
2022-09-04T09:02:58.191Z,4.60
2022-09-04T09:09:47.725Z,3.80
2022-09-04T09:13:09.046Z,4.03
2022-09-04T09:16:20.575Z,3.63
2022-09-04T09:19:23.380Z,4.35
2022-09-04T09:22:39.411Z,4.03
2022-09-04T09:25:46.395Z,4.33
2022-09-04T09:29:08.332Z,4.30
2022-09-04T09:32:33.537Z,3.98
2022-09-04T09:35:58.225Z,4.17
2022-09-04T09:39:34.497Z,3.90
2022-09-04T09:42:49.607Z,4.00
2022-09-04T09:46:02.411Z,4.00
2022-09-04T09:49:25.862Z,3.77
2022-09-04T09:53:01.086Z,4.07
2022-09-04T09:56:28.380Z,3.90
2022-09-04T10:00:05.279Z,3.77
2022-09-04T10:03:33.323Z,3.70
2022-09-04T10:07:00.993Z,4.10
2022-09-04T10:13:20.949Z,4.15
2022-09-04T10:16:55.132Z,4.17
2022-09-04T10:20:19.168Z,3.50
2022-09-04T10:23:38.191Z,3.60
2022-09-04T10:26:56.003Z,3.47
2022-09-04T10:30:05.031Z,3.80
2022-09-04T10:33:20.414Z,3.73
2022-09-04T10:36:31.287Z,3.83
2022-09-04T10:39:53.697Z,3.60
2022-09-04T10:43:00.784Z,3.50
2022-09-04T10:46:02.519Z,3.57
2022-09-04T10:49:17.036Z,3.05
2022-09-04T10:53:01.526Z,3.60
2022-09-04T10:56:23.771Z,3.73
2022-09-04T10:59:40.376Z,4.08
2022-09-04T11:03:03.621Z,4.00
2022-09-04T11:06:18.817Z,4.13
2022-09-04T11:09:53.252Z,4.07
2022-09-04T11:13:32.752Z,3.53
2022-09-04T11:17:06.563Z,4.07
2022-09-04T11:20:54.915Z,3.83
2022-09-04T11:24:33.642Z,4.20
2022-09-04T11:27:52.510Z,4.27
2022-09-04T11:31:03.581Z,4.13
2022-09-04T11:34:33.501Z,4.40
2022-09-04T11:38:01.783Z,3.90
2022-09-04T11:41:47.541Z,3.87
2022-09-04T11:45:16.982Z,4.10
2022-09-04T11:48:56.528Z,5.57
2022-09-04T11:52:10.445Z,4.00
2022-09-04T11:55:25.272Z,4.00
2022-09-04T11:58:51.230Z,4.10
2022-09-04T12:02:01.871Z,6.43
2022-09-04T12:05:20.764Z,5.00
2022-09-04T12:08:37.818Z,3.93
2022-09-04T12:11:57.600Z,4.80
2022-09-04T12:15:08.611Z,4.10
2022-09-04T12:18:55.127Z,4.33
2022-09-04T12:22:21.312Z,3.87
2022-09-04T12:25:33.007Z,4.13
2022-09-04T12:29:06.820Z,3.93
2022-09-04T12:32:36.129Z,4.00
2022-09-04T12:35:55.395Z,3.63
2022-09-04T12:39:18.965Z,3.90
2022-09-04T12:42:18.364Z,5.03
2022-09-04T12:45:28.470Z,3.90
2022-09-04T12:48:36.091Z,3.47
2022-09-04T12:51:38.226Z,3.40
2022-09-04T12:54:40.086Z,3.30
2022-09-04T13:00:40.764Z,3.67
2022-09-04T13:03:50.632Z,3.83
2022-09-04T13:06:54.364Z,3.70
2022-09-04T13:09:55.202Z,4.20
2022-09-04T13:12:56.246Z,3.80
2022-09-04T13:16:00.548Z,3.98
2022-09-04T13:19:09.184Z,4.37
2022-09-04T13:22:12.660Z,4.27
2022-09-04T13:25:14.763Z,3.80
2022-09-04T13:31:38.817Z,3.10
2022-09-04T13:34:40.825Z,3.73
2022-09-04T13:37:45.554Z,3.60
2022-09-04T13:41:00.520Z,3.50
2022-09-04T13:44:10.309Z,3.50
2022-09-04T13:47:09.401Z,3.10
2022-09-04T13:50:10.218Z,3.60
2022-09-04T13:53:11.658Z,3.70
2022-09-04T13:56:09.995Z,3.83
2022-09-04T13:59:08.831Z,3.80
2022-09-04T14:02:08.488Z,3.60
2022-09-04T14:05:06.001Z,3.73
2022-09-04T14:08:06.897Z,3.57
2022-09-04T14:11:37.782Z,3.85
2022-09-04T14:15:14.666Z,3.90
2022-09-04T14:18:21.016Z,3.43
2022-09-04T14:21:24.739Z,5.17
2022-09-04T14:24:25.968Z,4.10
2022-09-04T14:27:28.434Z,3.40
2022-09-04T14:30:23.248Z,3.70
2022-09-04T14:33:28.989Z,3.53
2022-09-04T14:36:39.372Z,3.20
2022-09-04T14:39:34.513Z,2.80
2022-09-04T14:42:45.968Z,3.10
2022-09-04T14:46:04.928Z,3.12
2022-09-04T14:49:06.273Z,3.23
2022-09-04T14:52:03.268Z,2.93
2022-09-04T14:54:58.979Z,3.17
2022-09-04T14:57:56.305Z,3.20
2022-09-04T15:01:03.022Z,3.20
2022-09-04T15:04:03.337Z,3.00
2022-09-04T15:07:11.432Z,3.13
2022-09-04T15:10:20.303Z,3.20
2022-09-04T15:13:48.864Z,3.10
2022-09-04T15:16:54.628Z,3.67
2022-09-04T15:19:51.599Z,3.37
2022-09-04T15:22:48.047Z,3.57
2022-09-04T15:25:59.461Z,3.10
2022-09-04T15:28:56.100Z,3.12
2022-09-04T15:32:00.949Z,3.23
2022-09-04T15:35:07.400Z,3.30
2022-09-04T15:38:17.949Z,3.10
2022-09-04T15:41:22.998Z,3.20
2022-09-04T15:44:24.676Z,2.93
2022-09-04T15:47:27.132Z,3.20
2022-09-04T15:50:25.818Z,3.57
2022-09-04T15:53:27.288Z,3.60
2022-09-04T15:56:37.432Z,3.00
2022-09-04T15:59:40.586Z,3.57
2022-09-04T16:02:36.675Z,4.67
2022-09-04T16:05:41.791Z,5.40
2022-09-04T16:08:38.857Z,3.70
2022-09-04T16:11:35.888Z,3.60
2022-09-04T16:14:32.137Z,3.93
2022-09-04T16:17:29.151Z,3.67
2022-09-04T16:20:28.777Z,3.70
2022-09-04T16:23:30.025Z,3.57
2022-09-04T16:26:28.490Z,3.40
2022-09-04T16:29:29.008Z,4.40
2022-09-04T16:32:26.159Z,4.13
2022-09-04T16:35:23.517Z,6.13
2022-09-04T16:38:24.207Z,5.70
2022-09-04T16:41:25.893Z,4.50
2022-09-04T16:44:26.791Z,3.70
2022-09-04T16:47:26.290Z,3.50
2022-09-04T16:50:27.446Z,3.13
2022-09-04T16:53:27.682Z,3.22
2022-09-04T16:56:36.432Z,3.50
2022-09-04T16:59:39.764Z,3.60
2022-09-04T17:02:38.377Z,3.80
2022-09-04T17:05:40.531Z,3.57
2022-09-04T17:08:38.355Z,3.20
2022-09-04T17:11:39.765Z,3.40
2022-09-04T17:14:40.334Z,3.20
2022-09-04T17:17:35.613Z,3.33
2022-09-04T17:20:58.496Z,3.57
2022-09-04T17:28:55.744Z,4.13
2022-09-04T17:29:09.207Z,3.80
2022-09-04T17:30:37.395Z,4.22
2022-09-04T17:37:14.690Z,3.98
2022-09-04T17:40:39.387Z,4.00
2022-09-04T17:40:48.435Z,3.67
2022-09-04T17:43:36.935Z,4.47
2022-09-04T17:46:34.954Z,3.98
2022-09-04T17:49:34.486Z,4.00
2022-09-04T17:52:31.820Z,4.40
2022-09-04T17:55:25.767Z,4.40
2022-09-04T17:58:30.017Z,4.30
2022-09-04T18:01:30.659Z,4.67
2022-09-04T18:04:34.156Z,5.07
2022-09-04T18:08:08.326Z,4.63
2022-09-04T18:10:56.551Z,4.57
2022-09-04T18:14:02.514Z,4.70
2022-09-04T18:17:12.730Z,4.90
2022-09-04T18:20:16.229Z,4.90
2022-09-04T18:23:51.311Z,4.13
2022-09-04T18:26:51.905Z,4.93
2022-09-04T18:29:55.215Z,5.20
2022-09-04T18:37:07.721Z,5.93
2022-09-04T18:37:21.497Z,5.20
2022-09-04T18:39:49.778Z,5.83
2022-09-04T18:46:15.184Z,6.93
2022-09-04T18:50:31.291Z,6.83
2022-09-04T18:50:50.392Z,5.45
2022-09-04T18:55:48.198Z,6.53
2022-09-04T18:58:52.915Z,6.47
2022-09-04T19:01:49.119Z,6.93
2022-09-04T19:04:51.882Z,7.20
2022-09-04T19:07:49.789Z,6.47
2022-09-04T19:10:48.960Z,6.27
2022-09-04T19:13:46.656Z,6.87
2022-09-04T19:16:44.058Z,7.63
2022-09-04T19:19:43.651Z,7.83
2022-09-04T19:22:41.408Z,7.67
2022-09-04T19:25:40.610Z,8.47
2022-09-04T19:28:52.363Z,9.03
2022-09-04T19:31:55.670Z,9.80
2022-09-04T19:34:59.304Z,8.15
2022-09-04T19:41:07.829Z,9.17
2022-09-04T19:46:02.226Z,7.05
2022-09-04T19:46:04.529Z,7.93
2022-09-04T19:48:01.529Z,7.33
2022-09-04T19:53:33.440Z,7.60
2022-09-04T19:54:13.729Z,7.67
2022-09-04T19:57:33.499Z,8.07
2022-09-04T20:00:42.559Z,7.70
2022-09-04T20:03:46.847Z,7.33
2022-09-04T20:06:47.585Z,7.70
2022-09-04T20:09:46.169Z,8.10
2022-09-04T20:12:50.874Z,7.07
2022-09-04T20:15:54.036Z,6.93
2022-09-04T20:18:50.283Z,7.05
2022-09-04T20:21:49.759Z,7.47
2022-09-04T20:25:01.858Z,7.03
2022-09-04T20:28:02.100Z,6.23
2022-09-04T20:31:36.712Z,5.90
2022-09-04T20:34:39.413Z,6.80
2022-09-04T20:37:43.732Z,7.03
2022-09-04T20:40:42.929Z,7.60
2022-09-04T20:43:50.118Z,7.50
2022-09-04T20:52:43.708Z,8.10
2022-09-04T20:53:06.107Z,7.90
2022-09-04T20:53:59.802Z,8.77
2022-09-04T20:59:13.449Z,8.48
2022-09-04T21:03:15.216Z,9.40
2022-09-04T21:03:37.370Z,10.30
2022-09-04T21:06:36.058Z,11.23
2022-09-04T21:09:56.467Z,11.70
2022-09-04T21:13:23.641Z,10.03
2022-09-04T21:16:20.948Z,9.57
2022-09-04T21:19:47.889Z,9.40
2022-09-04T21:23:05.727Z,9.40
2022-09-04T21:26:10.251Z,11.07
2022-09-04T21:29:17.843Z,11.20
2022-09-04T21:32:30.302Z,11.00
2022-09-04T21:35:26.486Z,10.93
2022-09-04T21:38:38.314Z,11.40
2022-09-04T21:41:48.232Z,10.40
2022-09-04T21:45:09.549Z,10.63
2022-09-04T21:48:23.788Z,11.73
2022-09-04T21:51:33.960Z,10.20
2022-09-04T21:57:59.035Z,12.00
2022-09-04T22:02:26.632Z,11.17
2022-09-04T22:02:42.951Z,11.23
2022-09-04T22:05:31.792Z,10.60
2022-09-04T22:13:26.210Z,10.97
2022-09-04T22:13:43.096Z,11.47
2022-09-04T22:15:17.959Z,11.33
2022-09-04T22:18:41.668Z,10.50
2022-09-04T22:21:49.508Z,11.20
2022-09-04T22:25:02.209Z,12.70
2022-09-04T22:31:29.699Z,10.57
2022-09-04T22:34:50.001Z,11.17
2022-09-04T22:38:16.440Z,12.17
2022-09-04T22:41:26.901Z,10.40
2022-09-04T22:44:32.043Z,11.07
2022-09-04T22:47:40.054Z,11.20
2022-09-04T22:50:50.765Z,11.83
2022-09-04T22:54:17.564Z,10.60
2022-09-04T22:57:14.267Z,11.73
2022-09-04T23:00:14.703Z,11.57
2022-09-04T23:03:27.202Z,12.67
2022-09-04T23:12:10.836Z,13.63
2022-09-04T23:13:48.524Z,14.17
2022-09-04T23:14:07.634Z,14.53
2022-09-04T23:17:19.703Z,14.27
2022-09-04T23:26:38.854Z,14.68
2022-09-04T23:26:47.727Z,14.70
2022-09-04T23:28:12.310Z,15.23
2022-09-04T23:31:37.466Z,15.80
2022-09-04T23:38:55.935Z,16.83
2022-09-04T23:42:24.219Z,17.37
2022-09-04T23:46:01.135Z,17.73
2022-09-04T23:49:34.499Z,18.57
2022-09-04T23:53:00.460Z,17.67
2022-09-04T23:56:26.785Z,17.27
2022-09-04T23:59:48.078Z,17.85
